Time;durP1;ratioP1;P1;durP2;ratioP2;P2;SDS_P1;SDS_P2;PMS_P1;PMS_P2;Temp;Humidity;BMP_temperature;BMP_pressure;BME280_temperature;BME280_humidity;BME280_pressure;Samples;Min_cycle;Max_cycle;Signal;HPM_P1;HPM_P2
2021/07/17 00:00:56;;;;;;;11.85;10.65;;;;;;;25.36;62.15;99170.25;1743219;82;20919;-41
2021/07/17 00:03:22;;;;;;;12.60;10.32;;;;;;;25.34;62.12;99172.09;1743160;82;20942;-41
2021/07/17 00:05:49;;;;;;;13.38;10.55;;;;;;;25.30;62.13;99179.04;1743412;82;21040;-41
2021/07/17 00:08:16;;;;;;;12.78;10.25;;;;;;;25.26;62.26;99175.66;1743244;82;21527;-41
2021/07/17 00:10:48;;;;;;;11.45;9.90;;;;;;;25.26;62.29;99175.04;1743034;82;21199;-41
2021/07/17 00:13:18;;;;;;;11.45;9.75;;;;;;;25.27;62.12;99162.69;1743179;81;20929;-41
2021/07/17 00:15:45;;;;;;;12.35;10.48;;;;;;;25.29;62.04;99167.78;1743176;81;21073;-42
2021/07/17 00:18:14;;;;;;;13.65;11.18;;;;;;;25.27;61.97;99168.23;1743074;82;21682;-41
2021/07/17 00:20:42;;;;;;;12.13;9.90;;;;;;;25.26;61.92;99169.49;1751265;81;21064;-41
2021/07/17 00:23:09;;;;;;;12.90;10.23;;;;;;;25.25;61.88;99169.95;1756555;81;21087;-41
2021/07/17 00:25:36;;;;;;;12.00;10.68;;;;;;;25.21;61.89;99165.95;1756387;81;20961;-41
2021/07/17 00:28:04;;;;;;;11.83;10.32;;;;;;;25.19;62.14;99172.56;1756636;81;21004;-41
2021/07/17 00:30:31;;;;;;;12.65;10.28;;;;;;;25.16;62.32;99167.95;1756425;81;21574;-42
2021/07/17 00:32:58;;;;;;;10.90;9.80;;;;;;;25.16;62.37;99167.95;1756699;81;21378;-42
2021/07/17 00:35:25;;;;;;;10.88;9.78;;;;;;;25.18;62.45;99172.41;1756627;81;21125;-41
2021/07/17 00:37:52;;;;;;;14.15;10.48;;;;;;;25.18;62.52;99161.30;1756539;81;21053;-41
2021/07/17 00:40:23;;;;;;;12.18;10.98;;;;;;;25.18;62.64;99168.24;1756474;81;21023;-41
2021/07/17 00:42:49;;;;;;;13.00;10.50;;;;;;;25.18;62.82;99169.63;1756087;81;21021;-41
2021/07/17 00:45:17;;;;;;;13.98;10.45;;;;;;;25.17;63.12;99169.50;1756934;81;21032;-41
2021/07/17 00:47:44;;;;;;;11.18;9.53;;;;;;;25.16;63.52;99167.95;1739786;81;21940;-41
2021/07/17 00:50:14;;;;;;;10.78;9.53;;;;;;;25.18;63.52;99160.53;1756734;81;21076;-41
2021/07/17 00:52:40;;;;;;;13.62;10.00;;;;;;;25.20;63.54;99161.63;1756668;81;21816;-41
2021/07/17 00:55:09;;;;;;;10.63;9.40;;;;;;;25.23;63.83;99159.30;1756689;81;20969;-41
2021/07/17 00:57:37;;;;;;;10.70;9.55;;;;;;;25.21;63.92;99158.23;1756674;81;21598;-41
2021/07/17 01:00:12;;;;;;;10.72;9.70;;;;;;;25.20;64.02;99146.36;1756770;81;21096;-41
2021/07/17 01:02:56;;;;;;;14.10;10.53;;;;;;;25.19;63.86;99155.92;1756661;81;21023;-41
2021/07/17 01:05:23;;;;;;;15.05;10.90;;;;;;;25.17;63.67;99161.17;1741804;81;21499;-41
2021/07/17 01:07:49;;;;;;;11.35;10.15;;;;;;;25.12;63.56;99159.63;1756742;81;21069;-41
2021/07/17 01:10:19;;;;;;;15.05;10.25;;;;;;;25.09;63.65;99156.53;1756609;81;21097;-41
2021/07/17 01:12:47;;;;;;;12.03;10.25;;;;;;;25.12;63.51;99158.25;1757189;81;21853;-41
2021/07/17 01:15:16;;;;;;;12.20;10.35;;;;;;;25.14;63.26;99156.53;1756521;81;20941;-41
2021/07/17 01:17:42;;;;;;;11.75;10.55;;;;;;;25.12;63.21;99160.41;1750985;81;21606;-41
2021/07/17 01:20:13;;;;;;;14.53;10.93;;;;;;;25.10;63.11;99161.47;1753352;81;21026;-41
2021/07/17 01:22:41;;;;;;;14.38;10.30;;;;;;;25.08;62.95;99163.92;1743617;82;21503;-41
2021/07/17 01:25:12;;;;;;;12.15;10.85;;;;;;;25.04;63.05;99168.25;1743309;82;21770;-41
2021/07/17 01:27:39;;;;;;;11.35;9.70;;;;;;;24.99;63.27;99167.47;1743131;81;21045;-41
2021/07/17 01:30:13;;;;;;;13.55;10.18;;;;;;;24.99;63.42;99170.86;1685898;84;20953;-41
2021/07/17 01:32:39;;;;;;;12.18;9.93;;;;;;;25.00;63.35;99166.86;1743446;82;21554;-41
2021/07/17 01:35:07;;;;;;;11.22;10.13;;;;;;;24.97;63.33;99168.56;1743402;82;21013;-42
2021/07/17 01:37:34;;;;;;;11.22;10.13;;;;;;;24.69;63.28;99128.91;1743503;82;21125;-41
2021/07/17 01:40:04;;;;;;;14.10;10.68;;;;;;;24.93;63.29;99168.56;1743163;81;20926;-41
2021/07/17 01:42:29;;;;;;;11.30;10.20;;;;;;;24.91;63.34;99164.86;1743398;81;21042;-41
2021/07/17 01:44:56;;;;;;;15.58;11.10;;;;;;;24.88;63.35;99173.34;1743350;82;21021;-42
2021/07/17 01:47:23;;;;;;;11.18;9.90;;;;;;;24.86;63.38;99166.05;1743327;82;21009;-41
2021/07/17 01:49:51;;;;;;;11.53;9.95;;;;;;;24.84;63.37;99161.57;1743208;81;21536;-41
2021/07/17 01:52:18;;;;;;;14.55;11.22;;;;;;;24.86;63.28;99161.89;1743229;81;20969;-41
2021/07/17 01:54:44;;;;;;;12.37;11.05;;;;;;;24.86;63.16;99159.12;1743239;82;20985;-41
2021/07/17 01:57:11;;;;;;;12.93;11.10;;;;;;;24.83;63.17;99162.83;1743266;82;20962;-41
2021/07/17 01:59:39;;;;;;;12.55;11.00;;;;;;;24.83;63.24;99164.21;1743254;82;20997;-41
2021/07/17 02:02:07;;;;;;;12.93;11.05;;;;;;;24.81;63.36;99169.44;1743437;82;21159;-41
2021/07/17 02:04:34;;;;;;;12.37;10.93;;;;;;;24.78;63.35;99166.20;1747580;81;21488;-41
2021/07/17 02:07:04;;;;;;;12.53;10.95;;;;;;;24.74;63.30;99165.59;1763894;81;21067;-41
2021/07/17 02:09:33;;;;;;;13.80;10.55;;;;;;;24.73;63.35;99162.66;1751665;81;20958;-41
2021/07/17 02:12:03;;;;;;;15.08;11.35;;;;;;;24.76;63.34;99158.34;1724679;82;20962;-41
2021/07/17 02:14:38;;;;;;;15.48;11.35;;;;;;;24.76;63.29;99165.27;1743249;82;21202;-41
2021/07/17 02:17:05;;;;;;;12.50;11.15;;;;;;;24.75;63.27;99161.56;1743016;81;20934;-41
2021/07/17 02:19:33;;;;;;;13.65;11.95;;;;;;;24.75;63.22;99161.56;1743094;82;20954;-41
2021/07/17 02:21:59;;;;;;;13.38;11.73;;;;;;;24.73;63.26;99161.27;1754617;81;20969;-41
2021/07/17 02:24:26;;;;;;;13.55;12.10;;;;;;;24.71;63.26;99158.17;1756871;81;21065;-41
2021/07/17 02:26:52;;;;;;;12.25;10.93;;;;;;;24.67;63.33;99159.10;1756542;81;21123;-41
2021/07/17 02:29:19;;;;;;;12.40;10.82;;;;;;;24.69;63.26;99160.78;1756437;81;21020;-41
2021/07/17 02:31:46;;;;;;;12.25;10.93;;;;;;;24.75;63.27;99162.95;1756793;81;21001;-41
2021/07/17 02:34:13;;;;;;;14.25;11.18;;;;;;;24.78;63.21;99160.05;1756827;81;21045;-41
2021/07/17 02:36:39;;;;;;;13.83;12.30;;;;;;;24.78;63.25;99157.89;1756581;81;21033;-41
2021/07/17 02:39:08;;;;;;;15.98;11.97;;;;;;;24.80;63.28;99163.73;1756351;81;21140;-41
2021/07/17 02:41:35;;;;;;;12.13;10.88;;;;;;;24.77;63.33;99159.89;1756388;81;21606;-41
2021/07/17 02:44:02;;;;;;;15.60;11.05;;;;;;;24.79;63.80;99163.56;1756625;81;21538;-41
2021/07/17 02:46:29;;;;;;;12.68;10.78;;;;;;;24.79;64.06;99162.18;1756734;81;21033;-41
2021/07/17 02:48:57;;;;;;;12.88;11.45;;;;;;;24.83;63.99;99157.28;1756542;81;21499;-41
2021/07/17 02:51:24;;;;;;;12.40;11.10;;;;;;;24.85;63.79;99162.50;1756698;81;21935;-41
2021/07/17 02:53:51;;;;;;;16.70;12.30;;;;;;;24.87;63.77;99159.31;1756443;81;20996;-41
2021/07/17 02:56:18;;;;;;;16.85;11.95;;;;;;;24.90;63.95;99159.16;1756552;81;21053;-41
2021/07/17 02:58:45;;;;;;;14.47;12.73;;;;;;;24.92;63.70;99151.16;1756861;81;20933;-41
2021/07/17 03:01:11;;;;;;;19.65;13.55;;;;;;;24.92;63.58;99151.16;1756404;81;21037;-41
2021/07/17 03:03:38;;;;;;;20.97;13.05;;;;;;;24.90;63.39;99155.61;1756498;81;21139;-41
2021/07/17 03:06:05;;;;;;;17.17;11.65;;;;;;;24.93;63.33;99157.47;1756714;81;21004;-41
2021/07/17 03:08:31;;;;;;;14.35;11.68;;;;;;;24.96;63.48;99158.70;1756372;81;21084;-41
2021/07/17 03:10:58;;;;;;;17.10;12.28;;;;;;;24.99;63.34;99159.77;1756527;81;21049;-41
2021/07/17 03:13:24;;;;;;;13.15;11.28;;;;;;;24.99;63.51;99156.38;1756605;81;21060;-41
2021/07/17 03:15:53;;;;;;;12.85;11.30;;;;;;;25.03;63.85;99154.83;1756512;81;21511;-41
2021/07/17 03:18:19;;;;;;;13.53;11.00;;;;;;;25.05;64.01;99154.54;1756353;81;21574;-41
2021/07/17 03:20:46;;;;;;;12.10;10.90;;;;;;;25.08;64.02;99147.28;1756734;81;20992;-41
2021/07/17 03:23:13;;;;;;;11.35;10.15;;;;;;;25.13;63.72;99148.66;1756531;81;21032;-41
2021/07/17 03:25:40;;;;;;;13.35;11.05;;;;;;;25.19;63.71;99147.59;1756484;81;21037;-41
2021/07/17 03:28:07;;;;;;;12.75;11.05;;;;;;;25.27;63.76;99155.00;1756571;81;21135;-41
2021/07/17 03:30:33;;;;;;;13.98;10.95;;;;;;;25.32;63.89;99148.19;1756845;81;21064;-41
2021/07/17 03:33:00;;;;;;;12.63;11.33;;;;;;;25.37;64.16;99150.34;1756540;81;20968;-41
2021/07/17 03:35:26;;;;;;;16.42;11.88;;;;;;;25.42;64.32;99149.72;1756752;81;21029;-41
2021/07/17 03:37:53;;;;;;;13.93;11.22;;;;;;;25.46;64.24;99148.94;1756680;81;21538;-41
2021/07/17 03:40:20;;;;;;;12.75;10.65;;;;;;;25.53;63.98;99152.80;1756296;81;22349;-41
2021/07/17 03:42:47;;;;;;;11.93;10.60;;;;;;;25.63;63.91;99144.47;1756541;81;21072;-41
2021/07/17 03:45:14;;;;;;;12.28;10.50;;;;;;;25.73;63.81;99150.16;1756377;81;20950;-41
2021/07/17 03:47:41;;;;;;;13.85;10.85;;;;;;;25.79;63.21;99146.91;1756418;81;21256;-41
2021/07/17 03:50:10;;;;;;;16.50;12.30;;;;;;;25.83;63.11;99141.95;1756473;81;21008;-41
2021/07/17 03:52:37;;;;;;;22.07;11.50;;;;;;;25.89;63.26;99140.09;1756496;81;21598;-41
2021/07/17 03:55:05;;;;;;;17.15;12.15;;;;;;;25.95;63.13;99146.52;1756603;81;21403;-41
2021/07/17 03:57:32;;;;;;;16.42;11.83;;;;;;;25.98;62.86;99142.83;1756375;81;20989;-41
2021/07/17 03:59:58;;;;;;;12.70;11.05;;;;;;;26.02;62.51;99153.14;1756553;81;22048;-41
2021/07/17 04:02:27;;;;;;;13.65;10.48;;;;;;;26.09;62.38;99150.66;1756500;81;21052;-41
2021/07/17 04:04:54;;;;;;;14.07;11.25;;;;;;;26.19;62.39;99146.60;1756447;81;21148;-41
2021/07/17 04:07:20;;;;;;;16.77;11.10;;;;;;;26.26;62.38;99142.88;1756559;81;20965;-41
2021/07/17 04:09:48;;;;;;;14.23;11.65;;;;;;;26.31;62.64;99150.57;1756576;81;21005;-41
2021/07/17 04:12:15;;;;;;;13.18;11.53;;;;;;;26.33;63.15;99160.61;1756363;81;21084;-41
2021/07/17 04:14:42;;;;;;;13.03;11.33;;;;;;;26.37;63.29;99162.59;1756578;81;20973;-41
2021/07/17 04:17:09;;;;;;;11.85;10.65;;;;;;;26.41;63.30;99160.25;1756335;81;22352;-41
2021/07/17 04:19:36;;;;;;;13.40;10.88;;;;;;;26.48;62.98;99162.70;1756413;81;20961;-41
2021/07/17 04:22:03;;;;;;;12.93;10.98;;;;;;;26.57;62.43;99162.64;1756417;81;21535;-41
2021/07/17 04:24:30;;;;;;;13.18;11.63;;;;;;;26.62;61.87;99171.11;1756526;81;20974;-41
2021/07/17 04:26:57;;;;;;;12.95;11.63;;;;;;;26.63;62.00;99174.62;1756687;81;21013;-41
2021/07/17 04:29:24;;;;;;;12.58;11.28;;;;;;;26.66;61.98;99170.92;1756610;81;21522;-41
2021/07/17 04:31:50;;;;;;;17.80;12.40;;;;;;;26.69;62.00;99168.58;1756336;81;21024;-41
2021/07/17 04:36:47;;;;;;;13.83;11.60;;;;;;;26.77;62.03;99161.43;1782713;79;22687;-41
2021/07/17 04:39:14;;;;;;;13.45;11.08;;;;;;;26.74;62.21;99170.09;1755257;81;20895;-41
2021/07/17 04:41:41;;;;;;;13.10;11.15;;;;;;;26.85;62.05;99172.34;1755303;81;21162;-41
2021/07/17 04:44:07;;;;;;;14.23;11.48;;;;;;;26.95;61.77;99165.49;1755443;81;21009;-41
2021/07/17 04:46:36;;;;;;;13.70;11.55;;;;;;;27.02;61.29;99170.68;1755492;81;20900;-41
2021/07/17 04:49:03;;;;;;;12.88;11.48;;;;;;;27.07;61.11;99172.80;1755323;81;20958;-41
2021/07/17 04:51:30;;;;;;;15.03;11.83;;;;;;;27.11;61.01;99173.39;1755447;81;21011;-41
2021/07/17 04:53:57;;;;;;;13.38;12.07;;;;;;;27.15;60.65;99171.22;1755470;81;21146;-41
2021/07/17 04:56:23;;;;;;;14.13;12.37;;;;;;;27.15;60.34;99174.62;1755178;81;20935;-41
2021/07/17 04:58:50;;;;;;;14.47;12.47;;;;;;;27.14;60.22;99176.63;1755612;81;21017;-41
2021/07/17 05:01:18;;;;;;;13.65;12.25;;;;;;;27.14;60.22;99176.63;1755342;81;21077;-41
2021/07/17 05:03:45;;;;;;;13.30;11.90;;;;;;;27.18;60.39;99173.03;1755283;81;21536;-41
2021/07/17 05:06:12;;;;;;;17.35;13.88;;;;;;;27.24;60.29;99178.09;1755376;81;21133;-41
2021/07/17 05:08:39;;;;;;;14.65;12.58;;;;;;;27.30;60.25;99183.00;1755165;81;21014;-41
2021/07/17 05:11:06;;;;;;;15.65;12.98;;;;;;;27.36;60.71;99174.11;1729812;81;21472;-41
2021/07/17 05:13:34;;;;;;;12.80;11.55;;;;;;;27.43;60.45;99179.31;1726840;82;21027;-41
2021/07/17 05:16:01;;;;;;;12.45;11.25;;;;;;;27.49;60.03;99169.08;1726869;82;21653;-41
2021/07/17 05:18:28;;;;;;;12.60;11.15;;;;;;;27.49;59.62;99176.81;1726708;83;21189;-41
2021/07/17 05:20:56;;;;;;;13.88;11.60;;;;;;;27.49;59.63;99177.44;1726775;83;21020;-41
2021/07/17 05:23:22;;;;;;;11.22;10.13;;;;;;;27.51;60.19;99184.67;1726771;83;21561;-41
2021/07/17 05:25:51;;;;;;;11.93;10.70;;;;;;;27.56;60.02;99188.19;1726637;83;21025;-41
2021/07/17 05:28:18;;;;;;;14.63;10.08;;;;;;;27.61;59.40;99179.93;1726813;82;21025;-41
2021/07/17 05:30:44;;;;;;;14.53;10.60;;;;;;;27.69;59.57;99185.13;1726617;83;21958;-41
2021/07/17 05:33:11;;;;;;;12.70;10.65;;;;;;;27.73;59.24;99187.87;1726792;82;21569;-41
2021/07/17 05:35:38;;;;;;;11.33;10.13;;;;;;;27.78;58.82;99189.21;1726990;83;21075;-41
2021/07/17 05:38:05;;;;;;;12.50;10.40;;;;;;;27.85;58.64;99185.41;1727034;82;21024;-41
2021/07/17 05:40:32;;;;;;;13.75;10.95;;;;;;;27.93;58.30;99182.36;1726970;83;21044;-41
2021/07/17 05:42:58;;;;;;;11.05;9.80;;;;;;;27.98;59.33;99181.69;1727268;83;21190;-41
2021/07/17 05:45:25;;;;;;;12.07;10.18;;;;;;;28.03;58.30;99181.66;1726957;83;21649;-41
2021/07/17 05:47:52;;;;;;;13.38;9.13;;;;;;;28.06;58.33;99180.06;1726494;83;20937;-41
2021/07/17 05:50:20;;;;;;;12.33;9.35;;;;;;;28.13;56.66;99180.30;1726370;83;21080;-41
2021/07/17 05:52:47;;;;;;;11.40;9.13;;;;;;;28.18;56.72;99188.61;1750832;81;20953;-41
2021/07/17 05:55:14;;;;;;;11.55;10.30;;;;;;;28.22;56.23;99187.81;1757194;81;21848;-41
2021/07/17 05:57:41;;;;;;;13.60;9.50;;;;;;;28.25;55.95;99186.20;1757048;81;21055;-41
2021/07/17 06:00:09;;;;;;;10.58;9.30;;;;;;;28.31;56.39;99187.69;1757351;81;20980;-41
2021/07/17 06:02:39;;;;;;;10.55;9.55;;;;;;;28.36;55.89;99187.78;1757352;81;20999;-41
2021/07/17 06:05:07;;;;;;;10.82;9.78;;;;;;;28.41;56.50;99186.33;1757332;81;21051;-41
2021/07/17 06:07:36;;;;;;;9.95;8.95;;;;;;;28.47;56.05;99187.15;1757179;81;20937;-41
2021/07/17 06:10:04;;;;;;;10.08;8.30;;;;;;;28.51;55.62;99187.73;1756846;81;20953;-41
2021/07/17 06:12:30;;;;;;;11.35;8.58;;;;;;;28.54;54.15;99189.55;1756498;81;20992;-41
2021/07/17 06:14:58;;;;;;;8.68;7.78;;;;;;;28.58;53.28;99185.92;1756623;81;21005;-41
2021/07/17 06:17:24;;;;;;;10.32;7.97;;;;;;;28.63;52.59;99186.63;1756592;81;20969;-41
2021/07/17 06:19:52;;;;;;;9.95;7.85;;;;;;;28.69;52.57;99187.48;1756669;81;21078;-41
2021/07/17 06:22:18;;;;;;;9.20;7.85;;;;;;;28.77;51.91;99183.04;1756594;81;21016;-41
2021/07/17 06:24:45;;;;;;;9.88;8.35;;;;;;;28.84;51.91;99189.61;1756887;81;20982;-41
2021/07/17 06:27:11;;;;;;;10.68;7.80;;;;;;;28.92;52.00;99189.33;1756657;81;21581;-41
2021/07/17 06:29:38;;;;;;;10.50;8.10;;;;;;;29.01;51.82;99187.64;1756919;81;21597;-41
2021/07/17 06:32:05;;;;;;;9.13;7.92;;;;;;;29.08;52.02;99187.23;1756532;81;21137;-41
2021/07/17 06:34:32;;;;;;;8.40;7.58;;;;;;;29.17;51.28;99180.88;1756420;81;20897;-41
2021/07/17 06:36:59;;;;;;;8.58;7.78;;;;;;;29.26;50.73;99187.70;1756617;81;20964;-41
2021/07/17 06:39:26;;;;;;;10.23;7.95;;;;;;;29.36;50.75;99186.94;1756802;81;21322;-41
2021/07/17 06:41:55;;;;;;;8.58;7.78;;;;;;;29.45;51.15;99190.20;1756882;81;21724;-41
2021/07/17 06:44:21;;;;;;;8.98;8.08;;;;;;;29.54;50.44;99182.42;1756744;81;21824;-41
2021/07/17 06:46:48;;;;;;;8.93;8.13;;;;;;;29.62;50.23;99183.53;1756656;81;21590;-41
2021/07/17 06:49:15;;;;;;;8.35;7.35;;;;;;;29.70;50.42;99174.06;1756570;81;21519;-41
2021/07/17 06:51:42;;;;;;;9.10;7.65;;;;;;;29.79;50.25;99173.27;1756513;81;21272;-41
2021/07/17 06:54:08;;;;;;;8.90;8.00;;;;;;;29.90;50.48;99171.86;1756713;81;21016;-41
2021/07/17 06:56:34;;;;;;;8.63;7.70;;;;;;;29.98;49.37;99174.33;1756584;81;21132;-41
2021/07/17 06:59:01;;;;;;;9.10;8.20;;;;;;;30.03;49.44;99177.17;1756961;81;20988;-41
2021/07/17 07:01:27;;;;;;;8.45;7.53;;;;;;;30.09;49.14;99178.62;1756604;81;21045;-41
2021/07/17 07:03:55;;;;;;;9.60;7.67;;;;;;;30.16;48.66;99178.17;1756724;81;21523;-41
2021/07/17 07:06:21;;;;;;;8.93;8.03;;;;;;;30.22;47.62;99182.52;1756504;81;20985;-41
2021/07/17 07:08:48;;;;;;;9.50;7.47;;;;;;;30.31;47.70;99175.97;1756643;81;21139;-41
2021/07/17 07:11:15;;;;;;;8.85;7.97;;;;;;;30.36;47.27;99183.63;1756439;81;21028;-41
2021/07/17 07:13:41;;;;;;;8.63;7.75;;;;;;;30.46;46.59;99181.43;1756671;81;20929;-41
2021/07/17 07:16:08;;;;;;;8.83;7.67;;;;;;;30.53;46.18;99178.18;1756609;81;21878;-41
2021/07/17 07:18:35;;;;;;;7.85;7.15;;;;;;;30.61;46.50;99178.60;1756576;81;21534;-41
2021/07/17 07:21:02;;;;;;;8.83;7.92;;;;;;;30.74;47.86;99181.61;1756500;81;21209;-41
2021/07/17 07:23:29;;;;;;;8.05;7.25;;;;;;;30.82;46.96;99181.25;1756650;81;20993;-41
2021/07/17 07:25:56;;;;;;;9.23;7.87;;;;;;;30.92;46.14;99185.37;1756511;81;20961;-41
2021/07/17 07:28:22;;;;;;;8.88;7.97;;;;;;;31.01;45.60;99185.16;1756652;81;21060;-41
2021/07/17 07:30:49;;;;;;;12.63;7.85;;;;;;;31.09;45.14;99191.82;1756687;81;21507;-41
2021/07/17 07:33:16;;;;;;;8.93;7.85;;;;;;;31.14;44.90;99188.91;1756552;81;21907;-41
2021/07/17 07:35:43;;;;;;;9.03;8.05;;;;;;;31.21;45.52;99185.63;1754507;81;21037;-41
2021/07/17 07:38:10;;;;;;;12.60;8.30;;;;;;;31.25;44.54;99188.95;1743174;81;20965;-41
2021/07/17 07:40:37;;;;;;;8.25;7.45;;;;;;;31.27;44.01;99185.02;1743168;81;21025;-41
2021/07/17 07:43:03;;;;;;;10.03;8.23;;;;;;;31.28;44.13;99183.09;1743199;82;21061;-41
2021/07/17 07:45:30;;;;;;;9.40;7.50;;;;;;;31.33;44.59;99183.75;1743485;82;21768;-41
2021/07/17 07:47:57;;;;;;;9.28;7.92;;;;;;;31.42;44.61;99176.51;1743224;82;21025;-41
2021/07/17 07:50:24;;;;;;;8.93;8.03;;;;;;;31.49;45.03;99177.42;1743216;81;20951;-41
2021/07/17 07:52:51;;;;;;;10.60;7.65;;;;;;;31.57;44.23;99182.55;1743317;82;21437;-41
2021/07/17 07:55:18;;;;;;;11.00;7.97;;;;;;;31.66;43.98;99178.86;1742944;82;21048;-41
2021/07/17 07:57:46;;;;;;;8.43;7.62;;;;;;;31.71;43.29;99176.70;1743344;82;21186;-41
2021/07/17 08:00:15;;;;;;;9.28;7.67;;;;;;;31.73;43.14;99177.61;1743149;82;20918;-41
2021/07/17 08:02:41;;;;;;;9.05;7.28;;;;;;;31.66;43.18;99177.46;1743512;82;21570;-41
2021/07/17 08:05:10;;;;;;;10.98;8.20;;;;;;;31.60;43.02;99180.91;1743269;82;20997;-41
2021/07/17 08:07:37;;;;;;;9.13;8.07;;;;;;;31.52;43.57;99176.30;1743649;82;21509;-41
2021/07/17 08:10:06;;;;;;;8.45;7.60;;;;;;;31.52;43.62;99174.89;1743058;82;21902;-41
2021/07/17 08:12:32;;;;;;;8.83;7.92;;;;;;;31.55;43.54;99173.87;1743440;82;21547;-41
2021/07/17 08:14:59;;;;;;;8.55;7.50;;;;;;;31.62;43.63;99180.39;1743392;82;20966;-41
2021/07/17 08:17:26;;;;;;;9.13;7.97;;;;;;;31.64;43.30;99173.65;1754683;81;20922;-41
2021/07/17 08:19:52;;;;;;;7.95;7.15;;;;;;;31.65;42.81;99177.98;1763867;81;21583;-41
2021/07/17 08:22:19;;;;;;;10.63;7.55;;;;;;;31.63;42.79;99179.89;1763807;81;21124;-41
2021/07/17 08:24:46;;;;;;;8.75;7.80;;;;;;;31.60;42.96;99181.55;1744888;81;21005;-41
2021/07/17 08:27:13;;;;;;;11.05;7.80;;;;;;;31.59;42.99;99173.77;1734566;82;21012;-41
2021/07/17 08:29:40;;;;;;;11.12;7.70;;;;;;;31.61;44.39;99174.05;1734916;82;21610;-41
2021/07/17 08:32:07;;;;;;;9.18;8.20;;;;;;;31.63;44.24;99179.89;1734775;82;21088;-41
2021/07/17 08:34:33;;;;;;;9.73;7.45;;;;;;;31.62;43.43;99176.19;1734688;82;21148;-41
2021/07/17 08:37:00;;;;;;;8.83;7.80;;;;;;;31.57;43.33;99170.70;1738973;81;21061;-41
2021/07/17 08:39:27;;;;;;;10.80;7.97;;;;;;;31.54;43.11;99167.49;1742842;82;21441;-41
2021/07/17 08:41:53;;;;;;;8.58;7.65;;;;;;;31.54;43.01;99170.30;1742974;82;21029;-41
2021/07/17 08:44:21;;;;;;;8.25;7.47;;;;;;;31.57;44.91;99174.14;1742895;82;21025;-41
2021/07/17 08:46:47;;;;;;;8.13;7.30;;;;;;;31.57;44.35;99177.70;1742924;82;21834;-41
2021/07/17 08:49:15;;;;;;;8.50;7.30;;;;;;;31.61;45.32;99176.08;1742778;82;21020;-41
2021/07/17 08:51:45;;;;;;;11.53;7.50;;;;;;;31.67;45.36;99171.98;1742848;81;21566;-41
2021/07/17 08:54:13;;;;;;;9.73;7.65;;;;;;;31.76;45.12;99172.38;1743057;82;20938;-41
2021/07/17 08:56:41;;;;;;;8.88;7.17;;;;;;;31.88;44.92;99173.92;1742753;82;21028;-41
2021/07/17 08:59:09;;;;;;;8.95;7.58;;;;;;;32.02;43.63;99169.33;1742949;82;21144;-41
2021/07/17 09:01:37;;;;;;;10.30;7.30;;;;;;;32.17;44.16;99160.80;1742729;82;21018;-41
2021/07/17 09:04:04;;;;;;;8.70;7.75;;;;;;;32.40;43.50;99167.77;1742751;82;21041;-41
2021/07/17 09:06:32;;;;;;;9.70;7.45;;;;;;;32.61;41.87;99156.38;1742871;82;21539;-41
2021/07/17 09:08:59;;;;;;;9.55;7.00;;;;;;;32.76;41.31;99156.86;1742354;82;21023;-41
2021/07/17 09:11:40;;;;;;;7.95;6.92;;;;;;;32.92;41.11;99153.20;1721117;83;21145;-41
2021/07/17 09:14:08;;;;;;;8.88;6.85;;;;;;;33.05;40.33;99161.07;1721100;83;20918;-41
2021/07/17 09:16:36;;;;;;;8.60;7.45;;;;;;;33.11;40.26;99156.94;1721348;83;21013;-41
2021/07/17 09:19:04;;;;;;;8.90;7.15;;;;;;;33.22;40.04;99151.93;1721431;83;21020;-41
2021/07/17 09:21:36;;;;;;;7.70;7.00;;;;;;;33.36;39.54;99148.65;1721273;83;21044;-41
2021/07/17 09:24:14;;;;;;;9.88;7.05;;;;;;;33.46;39.10;99151.27;1721334;83;21125;-41
2021/07/17 09:26:58;;;;;;;9.75;7.25;;;;;;;33.50;39.03;99150.38;1721443;83;21000;-41
2021/07/17 09:29:25;;;;;;;8.60;7.05;;;;;;;33.49;39.25;99148.84;1721350;82;21594;-41
2021/07/17 09:31:55;;;;;;;10.57;7.13;;;;;;;33.50;39.68;99147.56;1703290;83;20965;-41
2021/07/17 09:34:25;;;;;;;10.05;7.25;;;;;;;33.55;39.86;99149.56;1721515;83;21227;-41
2021/07/17 09:37:01;;;;;;;10.40;7.58;;;;;;;33.64;39.95;99145.02;1718623;82;21109;-41
2021/07/17 09:39:37;;;;;;;7.87;7.17;;;;;;;33.76;38.79;99142.90;1713479;82;21531;-41
2021/07/17 09:42:11;;;;;;;10.10;6.85;;;;;;;33.83;38.95;99141.70;1713964;83;20961;-41
2021/07/17 09:44:38;;;;;;;7.65;6.83;;;;;;;33.84;38.69;99145.28;1713769;82;21618;-41
2021/07/17 09:47:26;;;;;;;9.30;7.08;;;;;;;33.81;39.52;99140.05;1713888;83;21566;-41
2021/07/17 09:50:13;;;;;;;9.43;7.30;;;;;;;33.76;39.81;99139.45;1713687;82;21082;-41
2021/07/17 09:52:45;;;;;;;9.35;7.25;;;;;;;33.66;39.69;99136.81;1713868;83;21020;-41
2021/07/17 09:55:16;;;;;;;10.28;7.10;;;;;;;33.52;39.59;99132.32;1713556;83;20977;-41
2021/07/17 09:57:43;;;;;;;8.43;7.42;;;;;;;33.42;39.91;99136.09;1714036;83;21552;-41
2021/07/17 10:00:15;;;;;;;7.78;6.85;;;;;;;33.39;40.12;99139.96;1713602;83;21085;-41
2021/07/17 10:02:41;;;;;;;8.45;6.78;;;;;;;33.46;39.72;99133.00;1714089;82;21134;-41
2021/07/17 10:05:10;;;;;;;9.58;6.83;;;;;;;33.60;39.32;99136.09;1713548;83;20991;-41
2021/07/17 10:07:37;;;;;;;8.23;7.00;;;;;;;33.82;38.95;99132.37;1714011;82;21512;-41
2021/07/17 10:10:05;;;;;;;7.37;6.67;;;;;;;34.05;38.67;99127.42;1713593;82;21049;-41
2021/07/17 10:12:33;;;;;;;7.87;7.08;;;;;;;34.24;38.14;99119.08;1714141;83;21002;-41
2021/07/17 10:15:02;;;;;;;8.10;7.12;;;;;;;34.45;38.39;99117.31;1713736;83;21111;-41
2021/07/17 10:17:38;;;;;;;7.97;6.53;;;;;;;34.68;37.20;99111.44;1713759;82;21073;-41
2021/07/17 10:20:09;;;;;;;7.37;6.60;;;;;;;34.83;36.57;99104.07;1713552;83;20989;-41
2021/07/17 10:22:36;;;;;;;7.22;6.25;;;;;;;35.09;36.87;99115.38;1713899;82;21511;-41
2021/07/17 10:25:10;;;;;;;13.68;6.90;;;;;;;35.18;36.35;99109.39;1713472;83;21068;-41
2021/07/17 10:27:37;;;;;;;10.72;7.45;;;;;;;35.30;36.52;99103.69;1713922;82;21923;-41
2021/07/17 10:30:07;;;;;;;8.65;6.83;;;;;;;35.51;36.32;99103.23;1713503;83;20930;-41
2021/07/17 10:32:34;;;;;;;11.10;7.05;;;;;;;35.78;35.57;99100.53;1714121;82;20967;-41
2021/07/17 10:35:01;;;;;;;7.17;6.47;;;;;;;36.05;35.38;99092.97;1713476;83;21022;-41
2021/07/17 10:37:33;;;;;;;7.85;7.05;;;;;;;36.35;34.27;99091.28;1713987;82;21036;-42
2021/07/17 10:40:10;;;;;;;7.37;6.60;;;;;;;36.51;32.01;99076.04;1713688;83;21106;-41
2021/07/17 10:42:41;;;;;;;7.12;6.42;;;;;;;36.48;31.91;99082.79;1714466;82;21508;-41
2021/07/17 10:45:09;;;;;;;7.37;6.62;;;;;;;36.45;31.87;99077.48;1713566;82;20942;-41
2021/07/17 10:47:40;;;;;;;8.40;6.45;;;;;;;36.36;32.34;99069.45;1703649;83;21042;-41
2021/07/17 10:50:10;;;;;;;8.03;7.22;;;;;;;36.37;32.46;99068.89;1713520;83;21337;-41
2021/07/17 10:52:44;;;;;;;7.60;6.85;;;;;;;36.48;33.17;99075.73;1703646;83;21149;-41
2021/07/17 10:55:36;;;;;;;10.85;6.87;;;;;;;36.52;32.77;99070.51;1713400;83;20977;-41
2021/07/17 10:58:14;;;;;;;9.95;7.05;;;;;;;36.51;33.31;99067.57;1713733;83;21102;-41
2021/07/17 11:00:50;;;;;;;10.40;6.80;;;;;;;36.38;33.07;99061.95;1713893;83;20982;-41
2021/07/17 11:03:19;;;;;;;8.43;6.92;;;;;;;36.25;33.38;99057.73;1713832;83;21037;-41
2021/07/17 11:05:46;;;;;;;;;;;;;;;36.08;33.89;99054.42;1710343;83;21114;-41
2021/07/17 11:08:34;;;;;;;9.83;7.28;;;;;;;36.03;34.41;99044.00;1713487;83;20131;-42
2021/07/17 11:11:22;;;;;;;7.60;6.65;;;;;;;36.09;34.17;99041.84;1713786;82;20990;-41
2021/07/17 11:13:49;;;;;;;10.60;6.62;;;;;;;36.39;33.43;99033.83;1713923;83;21057;-42
2021/07/17 11:16:37;;;;;;;10.40;6.42;;;;;;;36.80;32.66;99028.20;1713519;83;21555;-41
2021/07/17 11:19:27;;;;;;;7.58;6.83;;;;;;;37.18;31.68;99027.97;1713671;83;21147;-41
2021/07/17 11:21:56;;;;;;;9.75;7.25;;;;;;;37.63;31.21;99018.40;1713725;83;20930;-42
2021/07/17 11:24:26;;;;;;;;;;;;;;;38.01;31.27;99013.02;1715396;82;21033;-41
2021/07/17 11:27:14;;;;;;;9.43;6.35;;;;;;;38.29;30.79;99008.07;1713559;83;20136;-42
2021/07/17 11:29:45;;;;;;;7.05;6.35;;;;;;;38.44;30.44;99006.68;1713847;83;21076;-41
2021/07/17 11:32:15;;;;;;;8.15;7.33;;;;;;;38.58;29.48;99000.31;1713602;82;21087;-41